createdAt,value
2022-12-11T00:00:10.190Z,15.60
2022-12-11T00:02:37.462Z,22.65
2022-12-11T00:05:04.828Z,18.90
2022-12-11T00:07:31.750Z,17.60
2022-12-11T00:09:58.899Z,16.10
2022-12-11T00:12:25.864Z,14.20
2022-12-11T00:14:52.908Z,14.57
2022-12-11T00:17:19.919Z,13.52
2022-12-11T00:19:46.900Z,12.27
2022-12-11T00:22:16.645Z,11.82
2022-12-11T00:27:10.387Z,11.55
2022-12-11T00:29:37.291Z,11.25
2022-12-11T00:32:04.388Z,10.50
2022-12-11T00:34:31.378Z,11.20
2022-12-11T00:36:59.287Z,10.65
2022-12-11T00:39:26.240Z,9.88
2022-12-11T00:41:53.225Z,9.35
2022-12-11T00:44:20.208Z,9.38
2022-12-11T00:46:47.202Z,9.30
2022-12-11T00:49:14.062Z,9.07
2022-12-11T00:51:40.962Z,8.50
2022-12-11T00:54:07.827Z,8.25
2022-12-11T00:56:34.692Z,8.43
2022-12-11T00:59:01.701Z,8.13
2022-12-11T01:01:28.832Z,8.43
2022-12-11T01:03:55.747Z,8.05
2022-12-11T01:06:26.706Z,7.85
2022-12-11T01:09:13.861Z,7.93
2022-12-11T01:11:42.100Z,7.93
2022-12-11T01:14:10.172Z,7.63
2022-12-11T01:16:37.305Z,7.38
2022-12-11T01:19:04.403Z,7.85
2022-12-11T01:21:31.253Z,7.07
2022-12-11T01:23:58.181Z,7.85
2022-12-11T01:26:25.076Z,6.82
2022-12-11T01:28:52.598Z,7.20
2022-12-11T01:31:20.561Z,6.70
2022-12-11T01:33:47.594Z,7.00
2022-12-11T01:36:19.982Z,6.90
2022-12-11T01:38:48.094Z,6.75
2022-12-11T01:41:16.548Z,6.82
2022-12-11T01:43:59.677Z,6.70
2022-12-11T01:46:27.536Z,6.97
2022-12-11T01:48:55.013Z,6.57
2022-12-11T01:51:22.822Z,6.60
2022-12-11T01:53:54.338Z,6.15
2022-12-11T01:56:21.260Z,5.97
2022-12-11T01:58:51.697Z,6.68
2022-12-11T02:01:43.385Z,6.25
2022-12-11T02:04:11.123Z,6.28
2022-12-11T02:06:44.549Z,5.60
2022-12-11T02:09:14.710Z,6.50
2022-12-11T02:11:53.108Z,6.28
2022-12-11T02:14:41.619Z,5.70
2022-12-11T02:17:19.480Z,6.18
2022-12-11T02:19:53.015Z,5.80
2022-12-11T02:22:43.403Z,5.57
2022-12-11T02:25:19.170Z,6.22
2022-12-11T02:28:11.052Z,6.35
2022-12-11T02:30:39.828Z,6.15
2022-12-11T02:33:07.627Z,5.20
2022-12-11T02:35:40.748Z,5.80
2022-12-11T02:38:15.860Z,5.63
2022-12-11T02:40:44.068Z,5.40
2022-12-11T02:43:13.702Z,5.43
2022-12-11T02:45:42.341Z,5.50
2022-12-11T02:48:10.932Z,6.17
2022-12-11T02:50:42.354Z,6.00
2022-12-11T02:53:12.373Z,5.40
2022-12-11T02:55:40.699Z,6.07
2022-12-11T02:58:18.611Z,5.60
2022-12-11T03:00:46.901Z,5.88
2022-12-11T03:03:14.378Z,6.00
2022-12-11T03:05:41.933Z,5.57
2022-12-11T03:08:08.919Z,5.13
2022-12-11T03:10:35.948Z,5.50
2022-12-11T03:13:03.352Z,5.55
2022-12-11T03:15:47.201Z,5.50
2022-12-11T03:18:35.767Z,5.68
2022-12-11T03:21:02.587Z,4.82
2022-12-11T03:23:58.560Z,5.32
2022-12-11T03:26:25.472Z,5.30
2022-12-11T03:29:00.098Z,5.38
2022-12-11T03:31:32.589Z,5.20
2022-12-11T03:34:03.669Z,5.60
2022-12-11T03:36:33.358Z,6.00
2022-12-11T03:41:31.038Z,5.10
2022-12-11T03:43:59.026Z,5.78
2022-12-11T03:46:32.578Z,5.43
2022-12-11T03:51:38.229Z,5.55
2022-12-11T03:54:05.450Z,5.07
2022-12-11T03:56:34.811Z,5.22
2022-12-11T03:59:01.762Z,5.65
2022-12-11T04:01:28.704Z,5.60
2022-12-11T04:03:55.798Z,5.88
2022-12-11T04:06:22.762Z,5.68
2022-12-11T04:08:49.687Z,5.10
2022-12-11T04:11:34.873Z,5.30
2022-12-11T04:14:25.638Z,4.90
2022-12-11T04:16:53.002Z,5.60
2022-12-11T04:19:39.302Z,4.90
2022-12-11T04:22:15.031Z,5.10
2022-12-11T04:24:41.950Z,5.10
2022-12-11T04:27:08.915Z,4.90
2022-12-11T04:29:35.892Z,5.07
2022-12-11T04:32:02.859Z,4.93
2022-12-11T04:34:30.175Z,4.68
2022-12-11T04:36:57.082Z,5.00
2022-12-11T04:39:24.046Z,5.20
2022-12-11T04:41:50.921Z,4.97
2022-12-11T04:44:17.825Z,4.80
2022-12-11T04:46:44.794Z,4.78
2022-12-11T04:49:12.920Z,5.30
2022-12-11T04:51:39.960Z,5.13
2022-12-11T04:54:06.901Z,4.95
2022-12-11T04:56:33.787Z,4.50
2022-12-11T04:59:01.404Z,4.82
2022-12-11T05:01:28.320Z,4.22
2022-12-11T05:03:55.294Z,4.90
2022-12-11T05:06:22.243Z,4.30
2022-12-11T05:08:49.206Z,3.92
2022-12-11T05:11:16.234Z,4.75
2022-12-11T05:13:43.614Z,4.47
2022-12-11T05:16:12.872Z,4.07
2022-12-11T05:18:40.030Z,4.30
2022-12-11T05:21:09.613Z,4.35
2022-12-11T05:23:37.212Z,4.60
2022-12-11T05:26:07.536Z,4.00
2022-12-11T05:28:36.650Z,4.18
2022-12-11T05:31:12.137Z,4.25
2022-12-11T05:33:39.124Z,4.10
2022-12-11T05:36:07.216Z,3.78
2022-12-11T05:38:34.155Z,4.25
2022-12-11T05:41:03.544Z,4.10
2022-12-11T05:43:33.461Z,4.10
2022-12-11T05:46:12.178Z,4.55
2022-12-11T05:48:40.184Z,3.80
2022-12-11T05:51:08.440Z,4.63
2022-12-11T05:53:37.174Z,4.75
2022-12-11T05:56:06.484Z,3.92
2022-12-11T05:58:34.455Z,3.90
2022-12-11T06:01:01.411Z,4.38
2022-12-11T06:03:28.619Z,4.53
2022-12-11T06:05:55.898Z,4.22
2022-12-11T06:08:22.918Z,4.03
2022-12-11T06:10:50.747Z,4.68
2022-12-11T06:13:17.760Z,4.65
2022-12-11T06:15:45.120Z,4.57
2022-12-11T06:18:12.035Z,4.60
2022-12-11T06:20:39.127Z,4.35
2022-12-11T06:23:06.109Z,3.95
2022-12-11T06:25:33.322Z,4.30
2022-12-11T06:28:00.261Z,4.80
2022-12-11T06:30:37.548Z,4.32
2022-12-11T06:33:06.747Z,4.57
2022-12-11T06:35:40.071Z,4.38
2022-12-11T06:38:08.984Z,4.65
2022-12-11T06:40:35.908Z,3.90
2022-12-11T06:43:03.608Z,3.80
2022-12-11T06:45:30.973Z,4.28
2022-12-11T06:47:58.849Z,3.78
2022-12-11T06:50:26.083Z,4.22
2022-12-11T06:52:53.014Z,3.78
2022-12-11T06:55:19.908Z,3.90
2022-12-11T06:57:46.823Z,4.72
2022-12-11T07:00:14.527Z,4.10
2022-12-11T07:02:41.559Z,4.40
2022-12-11T07:05:09.135Z,4.38
2022-12-11T07:07:36.379Z,4.30
2022-12-11T07:10:07.922Z,4.60
2022-12-11T07:12:35.442Z,4.30
2022-12-11T07:15:02.426Z,4.38
2022-12-11T07:17:29.952Z,4.47
2022-12-11T07:19:56.918Z,4.13
2022-12-11T07:22:23.913Z,3.88
2022-12-11T07:24:50.939Z,4.20
2022-12-11T07:27:17.857Z,4.20
2022-12-11T07:29:45.093Z,4.57
2022-12-11T07:32:12.142Z,4.30
2022-12-11T07:34:39.248Z,4.28
2022-12-11T07:37:06.178Z,4.10
2022-12-11T07:39:33.100Z,4.22
2022-12-11T07:42:00.060Z,4.10
2022-12-11T07:44:26.979Z,4.18
2022-12-11T07:46:53.844Z,4.63
2022-12-11T07:49:20.707Z,4.45
2022-12-11T07:51:47.552Z,4.15
2022-12-11T07:54:16.774Z,4.45
2022-12-11T07:56:46.515Z,4.30
2022-12-11T07:59:17.003Z,4.60
2022-12-11T08:01:44.343Z,4.65
2022-12-11T08:04:15.516Z,4.68
2022-12-11T08:06:43.283Z,4.47
2022-12-11T08:09:17.445Z,4.78
2022-12-11T08:11:49.801Z,4.63
2022-12-11T08:14:16.739Z,4.70
2022-12-11T08:16:44.272Z,4.30
2022-12-11T08:19:14.539Z,4.57
2022-12-11T08:21:41.634Z,5.10
2022-12-11T08:24:09.188Z,4.43
2022-12-11T08:26:36.570Z,4.88
2022-12-11T08:29:04.166Z,4.60
2022-12-11T08:31:31.420Z,4.63
2022-12-11T08:33:58.635Z,5.10
2022-12-11T08:36:25.913Z,4.88
2022-12-11T08:38:55.113Z,4.72
2022-12-11T08:41:27.572Z,6.20
2022-12-11T08:43:56.465Z,31.05
2022-12-11T08:46:25.716Z,40.72
2022-12-11T08:48:52.891Z,36.35
2022-12-11T08:51:23.009Z,33.53
2022-12-11T08:53:51.252Z,31.08
2022-12-11T08:56:20.436Z,27.77
2022-12-11T08:58:47.940Z,26.55
2022-12-11T09:01:18.073Z,24.65
2022-12-11T09:03:45.319Z,22.63
2022-12-11T09:06:15.201Z,19.88
2022-12-11T09:08:46.013Z,18.30
2022-12-11T09:11:23.091Z,17.25
2022-12-11T09:13:50.673Z,16.45
2022-12-11T09:16:20.872Z,16.40
2022-12-11T09:18:49.159Z,30.30
2022-12-11T09:21:18.725Z,34.53
2022-12-11T09:26:15.095Z,32.15
2022-12-11T09:28:46.185Z,28.55
2022-12-11T09:31:28.427Z,26.52
2022-12-11T09:33:57.403Z,25.20
2022-12-11T09:36:24.465Z,23.38
2022-12-11T09:38:51.519Z,24.02
2022-12-11T09:41:26.452Z,21.35
2022-12-11T09:44:04.056Z,21.08
2022-12-11T09:46:34.360Z,19.52
2022-12-11T09:49:03.379Z,18.25
2022-12-11T09:51:52.450Z,16.93
2022-12-11T09:54:19.379Z,17.17
2022-12-11T09:57:11.667Z,16.27
2022-12-11T09:59:46.239Z,16.75
2022-12-11T10:02:32.102Z,14.02
2022-12-11T10:05:27.349Z,15.50
2022-12-11T10:08:00.791Z,14.02
2022-12-11T10:10:53.768Z,14.05
2022-12-11T10:13:39.422Z,14.25
2022-12-11T10:16:49.298Z,13.18
2022-12-11T10:19:29.369Z,13.18
2022-12-11T10:21:57.040Z,12.00
2022-12-11T10:25:12.620Z,13.45
2022-12-11T10:27:40.572Z,12.38
2022-12-11T10:30:15.894Z,13.63
2022-12-11T10:33:07.773Z,13.00
2022-12-11T10:35:45.939Z,12.65
2022-12-11T10:38:20.895Z,13.23
2022-12-11T10:40:54.928Z,16.63
2022-12-11T10:43:33.102Z,12.20
2022-12-11T10:46:00.182Z,13.80
2022-12-11T10:48:27.130Z,12.02
2022-12-11T10:51:01.314Z,11.60
2022-12-11T10:53:29.279Z,10.80
2022-12-11T10:55:58.609Z,10.70
2022-12-11T10:58:33.999Z,11.25
2022-12-11T11:01:04.327Z,14.68
2022-12-11T11:03:32.832Z,10.20
2022-12-11T11:06:26.272Z,10.82
2022-12-11T11:08:56.296Z,12.32
2022-12-11T11:11:36.666Z,10.90
2022-12-11T11:14:14.769Z,9.52
2022-12-11T11:16:44.138Z,9.52
2022-12-11T11:19:24.373Z,10.25
2022-12-11T11:21:58.063Z,9.75
2022-12-11T11:24:29.695Z,10.52
2022-12-11T11:27:12.855Z,9.77
2022-12-11T11:29:41.319Z,9.27
2022-12-11T11:32:24.215Z,8.68
2022-12-11T11:34:51.190Z,8.82
2022-12-11T11:37:31.099Z,8.65
2022-12-11T11:40:06.403Z,9.45
2022-12-11T11:42:50.380Z,9.00
2022-12-11T11:45:34.652Z,9.18
2022-12-11T11:48:17.517Z,8.75
2022-12-11T11:50:46.173Z,8.75
2022-12-11T11:53:19.845Z,8.27
2022-12-11T11:56:07.620Z,8.02
2022-12-11T11:58:42.362Z,9.25
2022-12-11T12:01:17.559Z,8.80
2022-12-11T12:03:45.649Z,9.20
2022-12-11T12:06:31.872Z,8.23
2022-12-11T12:09:27.467Z,7.65
2022-12-11T12:12:01.484Z,8.68
2022-12-11T12:14:52.780Z,8.45
2022-12-11T12:17:27.216Z,8.30
2022-12-11T12:20:04.998Z,7.60
2022-12-11T12:22:56.771Z,7.97
2022-12-11T12:25:42.221Z,7.68
2022-12-11T12:28:34.125Z,7.97
2022-12-11T12:31:25.427Z,7.65
2022-12-11T12:34:37.905Z,7.32
2022-12-11T12:37:23.704Z,8.07
2022-12-11T12:39:59.859Z,7.63
2022-12-11T12:42:43.233Z,7.60
2022-12-11T12:45:16.037Z,7.32
2022-12-11T12:47:51.784Z,7.40
2022-12-11T12:50:25.424Z,7.15
2022-12-11T12:52:53.249Z,7.00
2022-12-11T12:55:23.019Z,7.60
2022-12-11T13:00:41.906Z,7.28
2022-12-11T13:03:20.292Z,7.20
2022-12-11T13:11:16.546Z,7.18
2022-12-11T13:13:55.003Z,7.05
2022-12-11T13:16:28.754Z,6.80
2022-12-11T13:18:55.661Z,7.07
2022-12-11T13:21:34.253Z,7.15
2022-12-11T13:24:13.244Z,6.93
2022-12-11T13:26:40.928Z,6.57
2022-12-11T13:29:31.951Z,6.45
2022-12-11T13:32:08.085Z,6.70
2022-12-11T13:34:37.958Z,6.53
2022-12-11T13:37:06.073Z,7.15
2022-12-11T13:39:35.180Z,5.70
2022-12-11T13:42:05.102Z,6.32
2022-12-11T13:44:39.050Z,6.72
2022-12-11T13:47:08.181Z,6.13
2022-12-11T13:49:37.755Z,6.45
2022-12-11T13:52:05.697Z,5.85
2022-12-11T13:54:36.388Z,6.05
2022-12-11T13:57:09.517Z,6.32
2022-12-11T13:59:38.522Z,5.95
2022-12-11T14:02:14.635Z,6.38
2022-12-11T14:04:41.957Z,5.25
2022-12-11T14:07:10.514Z,6.00
2022-12-11T14:09:43.954Z,5.68
2022-12-11T14:12:20.159Z,5.60
2022-12-11T14:14:53.908Z,5.90
2022-12-11T14:17:32.468Z,5.78
2022-12-11T14:20:01.820Z,5.57
2022-12-11T14:22:30.160Z,5.32
2022-12-11T14:25:05.245Z,5.32
2022-12-11T14:27:32.284Z,5.07
2022-12-11T14:30:10.978Z,5.30
2022-12-11T14:32:43.343Z,5.07
2022-12-11T14:35:26.845Z,4.57
2022-12-11T14:37:54.773Z,5.00
2022-12-11T14:40:25.613Z,4.70
2022-12-11T14:43:00.462Z,5.13
2022-12-11T14:45:53.936Z,5.18
2022-12-11T14:48:25.671Z,4.60
2022-12-11T14:50:54.872Z,4.72
2022-12-11T14:53:28.096Z,4.88
2022-12-11T14:55:56.143Z,4.60
2022-12-11T14:58:25.198Z,4.22
2022-12-11T15:01:05.924Z,4.30
2022-12-11T15:03:38.016Z,4.38
2022-12-11T15:06:28.660Z,4.43
2022-12-11T15:08:55.924Z,4.50
2022-12-11T15:11:24.205Z,4.20
2022-12-11T15:13:56.907Z,4.20
2022-12-11T15:16:25.844Z,4.30
2022-12-11T15:18:54.719Z,4.20
2022-12-11T15:21:30.137Z,4.47
2022-12-11T15:23:58.909Z,4.00
2022-12-11T15:26:45.860Z,3.85
2022-12-11T15:29:38.670Z,4.20
2022-12-11T15:32:08.634Z,4.20
2022-12-11T15:34:45.961Z,3.90
2022-12-11T15:39:54.351Z,3.90
2022-12-11T15:42:41.559Z,26.58
2022-12-11T15:47:45.038Z,29.10
2022-12-11T15:50:23.602Z,29.88
2022-12-11T15:52:52.577Z,27.35
2022-12-11T15:55:20.792Z,25.38
2022-12-11T15:57:58.148Z,25.15
2022-12-11T16:00:27.613Z,24.05
2022-12-11T16:02:55.686Z,22.30
2022-12-11T16:05:22.859Z,20.95
2022-12-11T16:07:54.108Z,20.27
2022-12-11T16:10:21.782Z,19.65
2022-12-11T16:12:48.690Z,18.65
2022-12-11T16:15:22.772Z,17.98
2022-12-11T16:17:50.840Z,16.65
2022-12-11T16:20:17.982Z,16.80
2022-12-11T16:22:44.838Z,15.52
2022-12-11T16:25:12.052Z,15.57
2022-12-11T16:27:39.130Z,15.43
2022-12-11T16:30:06.637Z,15.00
2022-12-11T16:32:33.632Z,13.82
2022-12-11T16:35:01.262Z,13.48
2022-12-11T16:37:28.396Z,13.13
2022-12-11T16:39:55.463Z,12.68
2022-12-11T16:42:22.336Z,12.57
2022-12-11T16:44:49.305Z,11.57
2022-12-11T16:47:16.172Z,11.55
2022-12-11T16:49:46.031Z,11.30
2022-12-11T16:54:43.325Z,23.80
2022-12-11T16:57:10.265Z,27.77
2022-12-11T16:59:37.864Z,23.60
2022-12-11T17:02:05.268Z,22.52
2022-12-11T17:04:32.691Z,20.52
2022-12-11T17:06:59.681Z,19.95
2022-12-11T17:09:26.546Z,19.60
2022-12-11T17:11:53.515Z,17.95
2022-12-11T17:14:20.495Z,16.85
2022-12-11T17:16:48.183Z,16.10
2022-12-11T17:19:15.774Z,16.13
2022-12-11T17:21:45.897Z,16.33
2022-12-11T17:24:17.989Z,14.95
2022-12-11T17:26:44.883Z,13.55
2022-12-11T17:29:12.842Z,13.55
2022-12-11T17:31:39.909Z,12.43
2022-12-11T17:34:06.863Z,11.60
2022-12-11T17:36:33.732Z,12.93
2022-12-11T17:39:00.774Z,12.38
2022-12-11T17:41:27.711Z,11.52
2022-12-11T17:43:54.665Z,10.98
2022-12-11T17:46:22.077Z,10.68
2022-12-11T17:48:49.443Z,10.98
2022-12-11T17:51:24.621Z,10.65
2022-12-11T17:53:52.775Z,9.70
2022-12-11T17:56:20.102Z,9.70
2022-12-11T17:58:47.097Z,9.63
2022-12-11T18:01:14.017Z,9.20
2022-12-11T18:03:41.598Z,8.93
2022-12-11T18:06:11.761Z,8.88
2022-12-11T18:08:39.270Z,9.30
2022-12-11T18:11:12.245Z,8.20
2022-12-11T18:13:39.816Z,8.45
2022-12-11T18:18:40.340Z,8.00
2022-12-11T18:21:07.786Z,7.88
2022-12-11T18:23:34.779Z,7.60
2022-12-11T18:26:01.844Z,7.95
2022-12-11T18:28:31.791Z,7.22
2022-12-11T18:31:03.153Z,7.63
2022-12-11T18:33:30.788Z,7.03
2022-12-11T18:35:57.694Z,6.80
2022-12-11T18:38:24.738Z,7.90
2022-12-11T18:40:51.710Z,6.65
2022-12-11T18:43:18.670Z,6.72
2022-12-11T18:45:45.743Z,6.72
2022-12-11T18:48:13.944Z,6.75
2022-12-11T18:50:45.910Z,6.43
2022-12-11T18:53:13.538Z,6.10
2022-12-11T18:55:44.885Z,6.03
2022-12-11T18:58:12.742Z,6.10
2022-12-11T19:00:40.906Z,6.43
2022-12-11T19:03:08.522Z,6.05
2022-12-11T19:05:36.197Z,5.93
2022-12-11T19:08:04.023Z,5.97
2022-12-11T19:10:30.871Z,6.60
2022-12-11T19:12:57.821Z,5.55
2022-12-11T19:15:24.748Z,5.93
2022-12-11T19:17:51.656Z,6.18
2022-12-11T19:20:47.372Z,6.30
2022-12-11T19:23:06.660Z,5.72
2022-12-11T19:25:33.838Z,5.43
2022-12-11T19:28:01.371Z,5.75
2022-12-11T19:30:28.394Z,6.10
2022-12-11T19:32:55.335Z,5.57
2022-12-11T19:35:22.233Z,5.65
2022-12-11T19:37:49.142Z,5.90
2022-12-11T19:40:16.629Z,5.40
2022-12-11T19:42:43.495Z,5.88
2022-12-11T19:45:11.189Z,5.50
2022-12-11T19:47:38.573Z,5.30
2022-12-11T19:50:06.268Z,5.53
2022-12-11T19:52:33.409Z,5.80
2022-12-11T19:55:05.535Z,98.57
2022-12-11T19:57:35.280Z,101.68
2022-12-11T20:02:29.221Z,91.45
2022-12-11T20:04:56.244Z,89.82
2022-12-11T20:07:27.469Z,77.88
2022-12-11T20:09:57.471Z,71.50
2022-12-11T20:12:24.561Z,70.40
2022-12-11T20:14:51.485Z,58.35
2022-12-11T20:17:18.612Z,55.75
2022-12-11T20:19:45.662Z,52.97
2022-12-11T20:22:12.606Z,52.25
2022-12-11T20:24:39.712Z,47.33
2022-12-11T20:27:06.715Z,45.13
2022-12-11T20:29:33.615Z,40.65
2022-12-11T20:32:00.614Z,39.08
2022-12-11T20:34:27.976Z,37.33
2022-12-11T20:36:55.692Z,34.72
2022-12-11T20:39:22.643Z,33.65
2022-12-11T20:41:49.616Z,30.73
2022-12-11T20:44:16.706Z,28.45
2022-12-11T20:46:43.669Z,26.60
2022-12-11T20:49:13.132Z,26.60
2022-12-11T20:51:40.668Z,25.55
2022-12-11T20:54:07.656Z,23.05
2022-12-11T20:56:34.572Z,23.08
2022-12-11T20:59:01.490Z,22.08
2022-12-11T21:01:31.222Z,21.23
2022-12-11T21:06:34.261Z,19.55
2022-12-11T21:09:04.594Z,19.05
2022-12-11T21:11:31.642Z,18.85
2022-12-11T21:13:59.139Z,18.65
2022-12-11T21:16:26.288Z,17.95
2022-12-11T21:18:53.476Z,17.98
2022-12-11T21:21:20.464Z,16.88
2022-12-11T21:23:47.370Z,16.63
2022-12-11T21:26:14.541Z,16.20
2022-12-11T21:28:41.625Z,16.20
2022-12-11T21:31:12.038Z,15.90
2022-12-11T21:33:39.402Z,15.80
2022-12-11T21:36:07.024Z,14.82
2022-12-11T21:38:33.997Z,14.45
2022-12-11T21:41:16.192Z,14.80
2022-12-11T21:44:14.604Z,13.77
2022-12-11T21:46:30.926Z,14.20
2022-12-11T21:48:57.893Z,13.63
2022-12-11T21:51:34.085Z,28.63
2022-12-11T21:54:05.203Z,68.28
2022-12-11T21:56:32.435Z,75.10
2022-12-11T21:59:01.364Z,76.93
2022-12-11T22:01:41.080Z,72.60
2022-12-11T22:04:08.930Z,69.10
2022-12-11T22:06:36.135Z,59.53
2022-12-11T22:09:05.311Z,54.58
2022-12-11T22:14:02.081Z,46.28
2022-12-11T22:16:29.118Z,42.60
2022-12-11T22:18:56.119Z,40.25
2022-12-11T22:21:23.159Z,39.83
2022-12-11T22:23:50.235Z,37.17
2022-12-11T22:26:20.195Z,34.33
2022-12-11T22:28:47.199Z,32.17
2022-12-11T22:31:16.851Z,30.10
2022-12-11T22:33:43.910Z,30.98
2022-12-11T22:36:11.416Z,34.97
2022-12-11T22:38:39.535Z,97.45
2022-12-11T22:41:20.441Z,116.00
2022-12-11T22:43:48.983Z,113.38
2022-12-11T22:46:17.182Z,103.18
2022-12-11T22:48:44.155Z,89.60
2022-12-11T22:51:11.370Z,86.57
2022-12-11T22:53:38.273Z,86.05
2022-12-11T22:56:10.775Z,77.43
2022-12-11T22:58:38.609Z,70.97
2022-12-11T23:01:14.808Z,66.72
2022-12-11T23:03:41.771Z,62.85
2022-12-11T23:06:11.318Z,62.28
2022-12-11T23:08:39.674Z,59.78
2022-12-11T23:11:16.896Z,55.90
2022-12-11T23:13:44.039Z,55.58
2022-12-11T23:16:11.791Z,51.78
2022-12-11T23:18:39.487Z,48.53
2022-12-11T23:21:07.428Z,46.90
2022-12-11T23:23:34.570Z,46.28
2022-12-11T23:26:01.877Z,42.33
2022-12-11T23:28:28.975Z,42.30
2022-12-11T23:30:55.946Z,40.85
2022-12-11T23:33:22.948Z,41.95
2022-12-11T23:35:50.011Z,37.85
2022-12-11T23:38:17.499Z,36.85
2022-12-11T23:40:44.774Z,35.83
2022-12-11T23:43:11.707Z,35.70
2022-12-11T23:45:38.682Z,34.78
2022-12-11T23:48:05.648Z,33.92
2022-12-11T23:50:33.052Z,32.92
2022-12-11T23:53:00.573Z,31.75
2022-12-11T23:55:27.682Z,32.45
2022-12-11T23:57:55.612Z,32.13
